sensor_id;sensor_type;location;lat;lon;timestamp;temperature;humidity
40964;DHT22;26693;51.168;4.138;2022-12-10T00:01:10;0.40;99.90
40964;DHT22;26693;51.168;4.138;2022-12-10T00:02:10;0.10;99.90
40964;DHT22;26693;51.168;4.138;2022-12-10T00:03:11;0.00;99.90
40964;DHT22;26693;51.168;4.138;2022-12-10T00:04:13;0.10;99.90
40964;DHT22;26693;51.168;4.138;2022-12-10T00:05:13;0.00;99.90
40964;DHT22;26693;51.168;4.138;2022-12-10T00:06:17;-0.20;99.90
40964;DHT22;26693;51.168;4.138;2022-12-10T00:07:17;-0.20;99.90
40964;DHT22;26693;51.168;4.138;2022-12-10T00:08:18;-0.30;99.90
40964;DHT22;26693;51.168;4.138;2022-12-10T00:09:20;-0.50;99.90
40964;DHT22;26693;51.168;4.138;2022-12-10T00:10:21;-0.50;99.90
40964;DHT22;26693;51.168;4.138;2022-12-10T00:11:23;-0.60;99.90
40964;DHT22;26693;51.168;4.138;2022-12-10T00:12:23;-0.60;99.90
40964;DHT22;26693;51.168;4.138;2022-12-10T00:13:24;-0.50;99.90
40964;DHT22;26693;51.168;4.138;2022-12-10T00:14:24;-0.50;99.90
40964;DHT22;26693;51.168;4.138;2022-12-10T00:15:25;-0.50;99.90
40964;DHT22;26693;51.168;4.138;2022-12-10T00:16:27;-0.30;99.90
40964;DHT22;26693;51.168;4.138;2022-12-10T00:17:28;-0.30;99.90
40964;DHT22;26693;51.168;4.138;2022-12-10T00:18:29;-0.10;99.90
40964;DHT22;26693;51.168;4.138;2022-12-10T00:19:29;-0.10;99.90
40964;DHT22;26693;51.168;4.138;2022-12-10T00:20:30;-0.20;99.90
40964;DHT22;26693;51.168;4.138;2022-12-10T00:21:33;-0.10;99.90
40964;DHT22;26693;51.168;4.138;2022-12-10T00:22:35;-0.20;99.90
40964;DHT22;26693;51.168;4.138;2022-12-10T00:23:36;-0.30;99.90
40964;DHT22;26693;51.168;4.138;2022-12-10T00:24:37;-0.20;99.90
40964;DHT22;26693;51.168;4.138;2022-12-10T00:25:37;-0.10;99.90
40964;DHT22;26693;51.168;4.138;2022-12-10T00:26:39;-0.10;99.90
40964;DHT22;26693;51.168;4.138;2022-12-10T00:27:39;0.00;99.90
40964;DHT22;26693;51.168;4.138;2022-12-10T00:28:41;0.00;99.90
40964;DHT22;26693;51.168;4.138;2022-12-10T00:29:43;0.00;99.90
40964;DHT22;26693;51.168;4.138;2022-12-10T00:30:43;-0.10;99.90
40964;DHT22;26693;51.168;4.138;2022-12-10T00:31:44;-0.20;99.90
40964;DHT22;26693;51.168;4.138;2022-12-10T00:32:45;-0.30;99.90
40964;DHT22;26693;51.168;4.138;2022-12-10T00:33:46;-0.30;99.90
40964;DHT22;26693;51.168;4.138;2022-12-10T00:34:47;-0.30;99.90
40964;DHT22;26693;51.168;4.138;2022-12-10T00:35:48;-0.40;99.90
40964;DHT22;26693;51.168;4.138;2022-12-10T00:36:49;-0.40;99.90
40964;DHT22;26693;51.168;4.138;2022-12-10T00:37:49;-0.30;99.90
40964;DHT22;26693;51.168;4.138;2022-12-10T00:38:51;-0.40;99.90
40964;DHT22;26693;51.168;4.138;2022-12-10T00:39:51;-0.30;99.90
40964;DHT22;26693;51.168;4.138;2022-12-10T00:40:52;-0.20;99.90
40964;DHT22;26693;51.168;4.138;2022-12-10T00:41:52;-0.20;99.90
40964;DHT22;26693;51.168;4.138;2022-12-10T00:42:53;0.00;99.90
40964;DHT22;26693;51.168;4.138;2022-12-10T00:43:54;0.20;99.90
40964;DHT22;26693;51.168;4.138;2022-12-10T00:44:54;0.00;99.90
40964;DHT22;26693;51.168;4.138;2022-12-10T00:45:55;-0.10;99.90
40964;DHT22;26693;51.168;4.138;2022-12-10T00:46:56;-0.10;99.90
40964;DHT22;26693;51.168;4.138;2022-12-10T00:47:56;0.00;99.90
40964;DHT22;26693;51.168;4.138;2022-12-10T00:48:58;0.20;99.90
40964;DHT22;26693;51.168;4.138;2022-12-10T00:49:59;0.20;99.90
40964;DHT22;26693;51.168;4.138;2022-12-10T00:51:01;0.10;99.90
40964;DHT22;26693;51.168;4.138;2022-12-10T00:52:02;0.10;99.90
40964;DHT22;26693;51.168;4.138;2022-12-10T00:53:03;0.00;99.90
40964;DHT22;26693;51.168;4.138;2022-12-10T00:54:04;0.10;99.90
40964;DHT22;26693;51.168;4.138;2022-12-10T00:55:05;0.20;99.90
40964;DHT22;26693;51.168;4.138;2022-12-10T00:56:07;0.30;99.90
40964;DHT22;26693;51.168;4.138;2022-12-10T00:57:08;0.20;99.90
40964;DHT22;26693;51.168;4.138;2022-12-10T00:58:08;0.00;99.90
40964;DHT22;26693;51.168;4.138;2022-12-10T00:59:09;0.00;99.90
40964;DHT22;26693;51.168;4.138;2022-12-10T01:00:10;0.10;99.90
40964;DHT22;26693;51.168;4.138;2022-12-10T01:02:23;0.40;99.90
40964;DHT22;26693;51.168;4.138;2022-12-10T01:03:24;0.60;99.90
40964;DHT22;26693;51.168;4.138;2022-12-10T01:04:25;0.60;99.90
40964;DHT22;26693;51.168;4.138;2022-12-10T01:05:25;0.50;99.90
40964;DHT22;26693;51.168;4.138;2022-12-10T01:06:30;0.30;99.90
40964;DHT22;26693;51.168;4.138;2022-12-10T01:07:31;0.50;99.90
40964;DHT22;26693;51.168;4.138;2022-12-10T01:08:31;0.50;99.90
40964;DHT22;26693;51.168;4.138;2022-12-10T01:09:32;0.50;99.90
40964;DHT22;26693;51.168;4.138;2022-12-10T01:10:33;0.60;99.90
40964;DHT22;26693;51.168;4.138;2022-12-10T01:11:36;0.50;99.90
40964;DHT22;26693;51.168;4.138;2022-12-10T01:12:40;0.30;99.90
40964;DHT22;26693;51.168;4.138;2022-12-10T01:13:40;0.30;99.90
40964;DHT22;26693;51.168;4.138;2022-12-10T01:14:41;0.50;99.90
40964;DHT22;26693;51.168;4.138;2022-12-10T01:15:42;0.60;99.90
40964;DHT22;26693;51.168;4.138;2022-12-10T01:16:43;0.50;99.90
40964;DHT22;26693;51.168;4.138;2022-12-10T01:17:44;0.30;99.90
40964;DHT22;26693;51.168;4.138;2022-12-10T01:18:44;0.30;99.90
40964;DHT22;26693;51.168;4.138;2022-12-10T01:19:45;0.20;99.90
40964;DHT22;26693;51.168;4.138;2022-12-10T01:20:45;0.10;99.90
40964;DHT22;26693;51.168;4.138;2022-12-10T01:21:50;0.00;99.90
40964;DHT22;26693;51.168;4.138;2022-12-10T01:22:51;0.10;99.90
40964;DHT22;26693;51.168;4.138;2022-12-10T01:23:52;0.20;99.90
40964;DHT22;26693;51.168;4.138;2022-12-10T01:24:53;0.30;99.90
40964;DHT22;26693;51.168;4.138;2022-12-10T01:25:53;0.40;99.90
40964;DHT22;26693;51.168;4.138;2022-12-10T01:26:54;0.60;99.90
40964;DHT22;26693;51.168;4.138;2022-12-10T01:27:55;0.60;99.90
40964;DHT22;26693;51.168;4.138;2022-12-10T01:28:56;0.50;99.90
40964;DHT22;26693;51.168;4.138;2022-12-10T01:29:57;0.60;99.90
40964;DHT22;26693;51.168;4.138;2022-12-10T01:31:06;0.40;99.90
40964;DHT22;26693;51.168;4.138;2022-12-10T01:32:07;0.10;99.90
40964;DHT22;26693;51.168;4.138;2022-12-10T01:33:08;0.10;99.90
40964;DHT22;26693;51.168;4.138;2022-12-10T01:34:11;0.20;99.90
40964;DHT22;26693;51.168;4.138;2022-12-10T01:35:12;0.20;99.90
40964;DHT22;26693;51.168;4.138;2022-12-10T01:36:15;0.20;99.90
40964;DHT22;26693;51.168;4.138;2022-12-10T01:37:16;0.30;99.90
40964;DHT22;26693;51.168;4.138;2022-12-10T01:38:17;0.50;99.90
40964;DHT22;26693;51.168;4.138;2022-12-10T01:39:19;0.60;99.90
40964;DHT22;26693;51.168;4.138;2022-12-10T01:40:20;0.70;99.90
40964;DHT22;26693;51.168;4.138;2022-12-10T01:41:24;0.60;99.90
40964;DHT22;26693;51.168;4.138;2022-12-10T01:42:25;0.60;99.90
40964;DHT22;26693;51.168;4.138;2022-12-10T01:43:26;0.60;99.90
40964;DHT22;26693;51.168;4.138;2022-12-10T01:45:27;0.60;99.90
40964;DHT22;26693;51.168;4.138;2022-12-10T01:46:33;0.50;99.90
40964;DHT22;26693;51.168;4.138;2022-12-10T01:47:35;0.60;99.90
40964;DHT22;26693;51.168;4.138;2022-12-10T01:48:35;0.70;99.90
40964;DHT22;26693;51.168;4.138;2022-12-10T01:49:39;0.60;99.90
40964;DHT22;26693;51.168;4.138;2022-12-10T01:50:39;0.50;99.90
40964;DHT22;26693;51.168;4.138;2022-12-10T01:51:42;0.50;99.90
40964;DHT22;26693;51.168;4.138;2022-12-10T01:52:43;0.40;99.90
40964;DHT22;26693;51.168;4.138;2022-12-10T01:53:45;0.40;99.90
40964;DHT22;26693;51.168;4.138;2022-12-10T01:54:46;0.30;99.90
40964;DHT22;26693;51.168;4.138;2022-12-10T01:55:49;0.40;99.90
40964;DHT22;26693;51.168;4.138;2022-12-10T01:56:56;0.60;99.90
40964;DHT22;26693;51.168;4.138;2022-12-10T01:57:58;0.50;99.90
40964;DHT22;26693;51.168;4.138;2022-12-10T01:58:58;0.60;99.90
40964;DHT22;26693;51.168;4.138;2022-12-10T02:00:02;0.60;99.90
40964;DHT22;26693;51.168;4.138;2022-12-10T02:02:46;0.70;99.90
40964;DHT22;26693;51.168;4.138;2022-12-10T02:05:22;0.80;99.90
40964;DHT22;26693;51.168;4.138;2022-12-10T02:07:54;0.90;99.90
40964;DHT22;26693;51.168;4.138;2022-12-10T02:09:25;1.10;99.90
40964;DHT22;26693;51.168;4.138;2022-12-10T02:11:45;0.90;99.90
40964;DHT22;26693;51.168;4.138;2022-12-10T02:12:52;0.90;99.90
40964;DHT22;26693;51.168;4.138;2022-12-10T02:14:02;0.90;99.90
40964;DHT22;26693;51.168;4.138;2022-12-10T02:16:38;1.00;99.90
40964;DHT22;26693;51.168;4.138;2022-12-10T02:17:45;0.90;99.90
40964;DHT22;26693;51.168;4.138;2022-12-10T02:18:50;0.90;99.90
40964;DHT22;26693;51.168;4.138;2022-12-10T02:21:08;0.80;99.90
40964;DHT22;26693;51.168;4.138;2022-12-10T02:22:10;0.70;99.90
40964;DHT22;26693;51.168;4.138;2022-12-10T02:23:16;0.90;99.90
40964;DHT22;26693;51.168;4.138;2022-12-10T02:24:30;0.70;99.90
40964;DHT22;26693;51.168;4.138;2022-12-10T02:25:48;0.60;99.90
40964;DHT22;26693;51.168;4.138;2022-12-10T02:28:13;0.20;99.90
40964;DHT22;26693;51.168;4.138;2022-12-10T02:29:20;0.30;99.90
40964;DHT22;26693;51.168;4.138;2022-12-10T02:30:21;0.30;99.90
40964;DHT22;26693;51.168;4.138;2022-12-10T02:31:25;0.30;99.90
40964;DHT22;26693;51.168;4.138;2022-12-10T02:32:33;0.10;99.90
40964;DHT22;26693;51.168;4.138;2022-12-10T02:33:38;0.30;99.90
40964;DHT22;26693;51.168;4.138;2022-12-10T02:34:50;0.30;99.90
40964;DHT22;26693;51.168;4.138;2022-12-10T02:35:53;0.30;99.90
40964;DHT22;26693;51.168;4.138;2022-12-10T02:36:54;0.20;99.90
40964;DHT22;26693;51.168;4.138;2022-12-10T02:38:07;0.30;99.90
40964;DHT22;26693;51.168;4.138;2022-12-10T02:39:11;0.10;99.90
40964;DHT22;26693;51.168;4.138;2022-12-10T02:40:19;0.10;99.90
40964;DHT22;26693;51.168;4.138;2022-12-10T02:41:32;0.20;99.90
40964;DHT22;26693;51.168;4.138;2022-12-10T02:42:36;0.30;99.90
40964;DHT22;26693;51.168;4.138;2022-12-10T02:43:38;0.50;99.90
40964;DHT22;26693;51.168;4.138;2022-12-10T02:44:40;0.50;99.90
40964;DHT22;26693;51.168;4.138;2022-12-10T02:45:43;0.40;99.90
40964;DHT22;26693;51.168;4.138;2022-12-10T02:46:47;0.50;99.90
40964;DHT22;26693;51.168;4.138;2022-12-10T02:47:50;0.40;99.90
40964;DHT22;26693;51.168;4.138;2022-12-10T02:48:51;0.30;99.90
40964;DHT22;26693;51.168;4.138;2022-12-10T02:49:54;0.30;99.90
40964;DHT22;26693;51.168;4.138;2022-12-10T02:50:56;0.30;99.90
40964;DHT22;26693;51.168;4.138;2022-12-10T02:51:57;0.20;99.90
40964;DHT22;26693;51.168;4.138;2022-12-10T02:52:57;0.00;99.90
40964;DHT22;26693;51.168;4.138;2022-12-10T02:54:03;0.00;99.90
40964;DHT22;26693;51.168;4.138;2022-12-10T02:55:05;0.00;99.90
40964;DHT22;26693;51.168;4.138;2022-12-10T02:56:36;-0.10;99.90
40964;DHT22;26693;51.168;4.138;2022-12-10T02:57:53;-0.10;99.90
40964;DHT22;26693;51.168;4.138;2022-12-10T02:59:27;-0.10;99.90
40964;DHT22;26693;51.168;4.138;2022-12-10T03:00:32;0.00;99.90
40964;DHT22;26693;51.168;4.138;2022-12-10T03:02:03;0.10;99.90
40964;DHT22;26693;51.168;4.138;2022-12-10T03:04:42;0.40;99.90
40964;DHT22;26693;51.168;4.138;2022-12-10T03:07:11;0.10;99.90
40964;DHT22;26693;51.168;4.138;2022-12-10T03:09:57;0.00;99.90
40964;DHT22;26693;51.168;4.138;2022-12-10T03:11:09;0.00;99.90
40964;DHT22;26693;51.168;4.138;2022-12-10T03:12:31;-0.10;99.90
40964;DHT22;26693;51.168;4.138;2022-12-10T03:13:43;0.00;99.90
40964;DHT22;26693;51.168;4.138;2022-12-10T03:14:45;0.00;99.90
40964;DHT22;26693;51.168;4.138;2022-12-10T03:15:47;0.10;99.90
40964;DHT22;26693;51.168;4.138;2022-12-10T03:16:56;0.20;99.90
40964;DHT22;26693;51.168;4.138;2022-12-10T03:17:59;0.30;99.90
40964;DHT22;26693;51.168;4.138;2022-12-10T03:19:05;0.20;99.90
40964;DHT22;26693;51.168;4.138;2022-12-10T03:20:08;0.20;99.90
40964;DHT22;26693;51.168;4.138;2022-12-10T03:21:09;0.20;99.90
40964;DHT22;26693;51.168;4.138;2022-12-10T03:22:13;0.20;99.90
40964;DHT22;26693;51.168;4.138;2022-12-10T03:23:16;0.30;99.90
40964;DHT22;26693;51.168;4.138;2022-12-10T03:24:19;0.40;99.90
40964;DHT22;26693;51.168;4.138;2022-12-10T03:25:24;0.40;99.90
40964;DHT22;26693;51.168;4.138;2022-12-10T03:26:26;0.40;99.90
40964;DHT22;26693;51.168;4.138;2022-12-10T03:27:29;0.50;99.90
40964;DHT22;26693;51.168;4.138;2022-12-10T03:28:34;0.50;99.90
40964;DHT22;26693;51.168;4.138;2022-12-10T03:29:57;0.50;99.90
40964;DHT22;26693;51.168;4.138;2022-12-10T03:30:59;0.40;99.90
40964;DHT22;26693;51.168;4.138;2022-12-10T03:31:59;0.40;99.90
40964;DHT22;26693;51.168;4.138;2022-12-10T03:33:01;0.30;99.90
40964;DHT22;26693;51.168;4.138;2022-12-10T03:34:02;0.40;99.90
40964;DHT22;26693;51.168;4.138;2022-12-10T03:35:04;0.50;99.90
40964;DHT22;26693;51.168;4.138;2022-12-10T03:36:07;0.50;99.90
40964;DHT22;26693;51.168;4.138;2022-12-10T03:37:08;0.60;99.90
40964;DHT22;26693;51.168;4.138;2022-12-10T03:38:10;0.60;99.90
40964;DHT22;26693;51.168;4.138;2022-12-10T03:39:11;0.60;99.90
40964;DHT22;26693;51.168;4.138;2022-12-10T03:40:12;0.80;99.90
40964;DHT22;26693;51.168;4.138;2022-12-10T03:41:13;0.70;99.90
40964;DHT22;26693;51.168;4.138;2022-12-10T03:42:13;0.50;99.90
40964;DHT22;26693;51.168;4.138;2022-12-10T03:43:14;0.60;99.90
40964;DHT22;26693;51.168;4.138;2022-12-10T03:44:27;0.40;99.90
40964;DHT22;26693;51.168;4.138;2022-12-10T03:45:27;0.10;99.90
40964;DHT22;26693;51.168;4.138;2022-12-10T03:46:30;0.10;99.90
40964;DHT22;26693;51.168;4.138;2022-12-10T03:47:31;0.10;99.90
40964;DHT22;26693;51.168;4.138;2022-12-10T03:48:31;0.00;99.90
40964;DHT22;26693;51.168;4.138;2022-12-10T03:49:32;0.10;99.90
40964;DHT22;26693;51.168;4.138;2022-12-10T03:50:33;0.00;99.90
40964;DHT22;26693;51.168;4.138;2022-12-10T03:51:33;0.00;99.90
40964;DHT22;26693;51.168;4.138;2022-12-10T03:52:34;0.20;99.90
40964;DHT22;26693;51.168;4.138;2022-12-10T03:53:35;0.30;99.90
40964;DHT22;26693;51.168;4.138;2022-12-10T03:54:36;0.40;99.90
40964;DHT22;26693;51.168;4.138;2022-12-10T03:55:36;0.50;99.90
40964;DHT22;26693;51.168;4.138;2022-12-10T03:56:38;0.50;99.90
40964;DHT22;26693;51.168;4.138;2022-12-10T03:57:38;0.30;99.90
40964;DHT22;26693;51.168;4.138;2022-12-10T03:58:39;0.50;99.90
40964;DHT22;26693;51.168;4.138;2022-12-10T03:59:40;0.40;99.90
40964;DHT22;26693;51.168;4.138;2022-12-10T04:00:40;0.20;99.90
40964;DHT22;26693;51.168;4.138;2022-12-10T04:01:41;0.20;99.90
40964;DHT22;26693;51.168;4.138;2022-12-10T04:02:42;0.30;99.90
40964;DHT22;26693;51.168;4.138;2022-12-10T04:03:43;0.30;99.90
40964;DHT22;26693;51.168;4.138;2022-12-10T04:04:43;0.40;99.90
40964;DHT22;26693;51.168;4.138;2022-12-10T04:05:44;0.30;99.90
40964;DHT22;26693;51.168;4.138;2022-12-10T04:06:45;0.20;99.90
40964;DHT22;26693;51.168;4.138;2022-12-10T04:07:46;0.20;99.90
40964;DHT22;26693;51.168;4.138;2022-12-10T04:08:47;0.20;99.90
40964;DHT22;26693;51.168;4.138;2022-12-10T04:09:47;0.20;99.90
40964;DHT22;26693;51.168;4.138;2022-12-10T04:10:48;0.10;99.90
40964;DHT22;26693;51.168;4.138;2022-12-10T04:11:48;0.00;99.90
40964;DHT22;26693;51.168;4.138;2022-12-10T04:12:49;-0.10;99.90
40964;DHT22;26693;51.168;4.138;2022-12-10T04:14:11;-0.20;99.90
40964;DHT22;26693;51.168;4.138;2022-12-10T04:15:30;-0.20;99.90
40964;DHT22;26693;51.168;4.138;2022-12-10T04:16:49;-0.10;99.90
40964;DHT22;26693;51.168;4.138;2022-12-10T04:17:50;-0.10;99.90
40964;DHT22;26693;51.168;4.138;2022-12-10T04:18:51;-0.10;99.90
40964;DHT22;26693;51.168;4.138;2022-12-10T04:19:51;0.20;99.90
40964;DHT22;26693;51.168;4.138;2022-12-10T04:20:52;0.30;99.90
40964;DHT22;26693;51.168;4.138;2022-12-10T04:22:11;0.40;99.90
40964;DHT22;26693;51.168;4.138;2022-12-10T04:23:30;0.50;99.90
40964;DHT22;26693;51.168;4.138;2022-12-10T04:24:49;0.60;99.90
40964;DHT22;26693;51.168;4.138;2022-12-10T04:26:09;0.40;99.90
40964;DHT22;26693;51.168;4.138;2022-12-10T04:27:46;-0.10;99.90
40964;DHT22;26693;51.168;4.138;2022-12-10T04:28:47;-0.30;99.90
40964;DHT22;26693;51.168;4.138;2022-12-10T04:29:48;-0.40;99.90
40964;DHT22;26693;51.168;4.138;2022-12-10T04:30:48;-0.40;99.90
40964;DHT22;26693;51.168;4.138;2022-12-10T04:31:49;-0.10;99.90
40964;DHT22;26693;51.168;4.138;2022-12-10T04:32:50;0.00;99.90
40964;DHT22;26693;51.168;4.138;2022-12-10T04:33:50;0.00;99.90
40964;DHT22;26693;51.168;4.138;2022-12-10T04:34:51;0.00;99.90
40964;DHT22;26693;51.168;4.138;2022-12-10T04:35:52;0.00;99.90
40964;DHT22;26693;51.168;4.138;2022-12-10T04:36:52;0.10;99.90
40964;DHT22;26693;51.168;4.138;2022-12-10T04:37:53;0.10;99.90
40964;DHT22;26693;51.168;4.138;2022-12-10T04:38:54;0.30;99.90
40964;DHT22;26693;51.168;4.138;2022-12-10T04:39:54;0.20;99.90
40964;DHT22;26693;51.168;4.138;2022-12-10T04:40:55;0.10;99.90
40964;DHT22;26693;51.168;4.138;2022-12-10T04:41:56;0.10;99.90
40964;DHT22;26693;51.168;4.138;2022-12-10T04:42:57;0.30;99.90
40964;DHT22;26693;51.168;4.138;2022-12-10T04:43:57;0.10;99.90
40964;DHT22;26693;51.168;4.138;2022-12-10T04:44:58;0.20;99.90
40964;DHT22;26693;51.168;4.138;2022-12-10T04:45:58;0.20;99.90
40964;DHT22;26693;51.168;4.138;2022-12-10T04:46:59;0.20;99.90
40964;DHT22;26693;51.168;4.138;2022-12-10T04:48:00;0.30;99.90
40964;DHT22;26693;51.168;4.138;2022-12-10T04:49:02;0.40;99.90
40964;DHT22;26693;51.168;4.138;2022-12-10T04:50:02;0.30;99.90
40964;DHT22;26693;51.168;4.138;2022-12-10T04:51:04;0.20;99.90
40964;DHT22;26693;51.168;4.138;2022-12-10T04:52:06;0.30;99.90
40964;DHT22;26693;51.168;4.138;2022-12-10T04:53:07;0.30;99.90
40964;DHT22;26693;51.168;4.138;2022-12-10T04:54:08;0.40;99.90
40964;DHT22;26693;51.168;4.138;2022-12-10T04:55:09;0.30;99.90
40964;DHT22;26693;51.168;4.138;2022-12-10T04:56:10;0.40;99.90
40964;DHT22;26693;51.168;4.138;2022-12-10T04:57:10;0.30;99.90
40964;DHT22;26693;51.168;4.138;2022-12-10T04:58:11;0.20;99.90
40964;DHT22;26693;51.168;4.138;2022-12-10T04:59:12;0.20;99.90
40964;DHT22;26693;51.168;4.138;2022-12-10T05:00:13;0.00;99.90
40964;DHT22;26693;51.168;4.138;2022-12-10T05:01:14;0.00;99.90
40964;DHT22;26693;51.168;4.138;2022-12-10T05:02:14;0.00;99.90
40964;DHT22;26693;51.168;4.138;2022-12-10T05:03:15;0.20;99.90
40964;DHT22;26693;51.168;4.138;2022-12-10T05:04:18;0.20;99.90
40964;DHT22;26693;51.168;4.138;2022-12-10T05:05:18;0.30;99.90
40964;DHT22;26693;51.168;4.138;2022-12-10T05:06:20;0.40;99.90
40964;DHT22;26693;51.168;4.138;2022-12-10T05:07:20;0.30;99.90
40964;DHT22;26693;51.168;4.138;2022-12-10T05:08:21;0.30;99.90
40964;DHT22;26693;51.168;4.138;2022-12-10T05:09:22;0.40;99.90
40964;DHT22;26693;51.168;4.138;2022-12-10T05:10:23;0.50;99.90
40964;DHT22;26693;51.168;4.138;2022-12-10T05:11:26;0.50;99.90
40964;DHT22;26693;51.168;4.138;2022-12-10T05:12:27;0.50;99.90
40964;DHT22;26693;51.168;4.138;2022-12-10T05:13:28;0.50;99.90
40964;DHT22;26693;51.168;4.138;2022-12-10T05:14:29;0.60;99.90
40964;DHT22;26693;51.168;4.138;2022-12-10T05:15:29;0.70;99.90
40964;DHT22;26693;51.168;4.138;2022-12-10T05:16:32;0.50;99.90
40964;DHT22;26693;51.168;4.138;2022-12-10T05:17:33;0.50;99.90
40964;DHT22;26693;51.168;4.138;2022-12-10T05:18:34;0.50;99.90
40964;DHT22;26693;51.168;4.138;2022-12-10T05:19:35;0.20;99.90
40964;DHT22;26693;51.168;4.138;2022-12-10T05:20:35;0.10;99.90
40964;DHT22;26693;51.168;4.138;2022-12-10T05:21:36;0.20;99.90
40964;DHT22;26693;51.168;4.138;2022-12-10T05:22:55;0.30;99.90
40964;DHT22;26693;51.168;4.138;2022-12-10T05:24:16;0.20;99.90
40964;DHT22;26693;51.168;4.138;2022-12-10T05:25:16;0.30;99.90
40964;DHT22;26693;51.168;4.138;2022-12-10T05:26:22;0.50;99.90
40964;DHT22;26693;51.168;4.138;2022-12-10T05:27:23;0.60;99.90
40964;DHT22;26693;51.168;4.138;2022-12-10T05:28:23;0.60;99.90
40964;DHT22;26693;51.168;4.138;2022-12-10T05:29:24;0.40;99.90
40964;DHT22;26693;51.168;4.138;2022-12-10T05:30:25;0.50;99.90
40964;DHT22;26693;51.168;4.138;2022-12-10T05:31:28;0.50;99.90
40964;DHT22;26693;51.168;4.138;2022-12-10T05:32:29;0.50;99.90
40964;DHT22;26693;51.168;4.138;2022-12-10T05:33:30;0.50;99.90
40964;DHT22;26693;51.168;4.138;2022-12-10T05:34:30;0.60;99.90
40964;DHT22;26693;51.168;4.138;2022-12-10T05:35:31;0.60;99.90
40964;DHT22;26693;51.168;4.138;2022-12-10T05:36:32;0.80;99.90
40964;DHT22;26693;51.168;4.138;2022-12-10T05:37:33;0.80;99.90
40964;DHT22;26693;51.168;4.138;2022-12-10T05:38:34;0.90;99.90
40964;DHT22;26693;51.168;4.138;2022-12-10T05:39:35;0.70;99.90
40964;DHT22;26693;51.168;4.138;2022-12-10T05:40:38;0.70;99.90
40964;DHT22;26693;51.168;4.138;2022-12-10T05:41:39;0.70;99.90
40964;DHT22;26693;51.168;4.138;2022-12-10T05:42:40;0.60;99.90
40964;DHT22;26693;51.168;4.138;2022-12-10T05:43:42;0.50;99.90
40964;DHT22;26693;51.168;4.138;2022-12-10T05:44:43;0.50;99.90
40964;DHT22;26693;51.168;4.138;2022-12-10T05:45:43;0.60;99.90
40964;DHT22;26693;51.168;4.138;2022-12-10T05:46:44;0.40;99.90
40964;DHT22;26693;51.168;4.138;2022-12-10T05:47:45;0.20;99.90
40964;DHT22;26693;51.168;4.138;2022-12-10T05:48:46;-0.10;99.90
40964;DHT22;26693;51.168;4.138;2022-12-10T05:49:47;-0.20;99.90
40964;DHT22;26693;51.168;4.138;2022-12-10T05:50:47;-0.20;99.90
40964;DHT22;26693;51.168;4.138;2022-12-10T05:51:48;-0.30;99.90
40964;DHT22;26693;51.168;4.138;2022-12-10T05:52:50;-0.30;99.90
40964;DHT22;26693;51.168;4.138;2022-12-10T05:53:52;-0.40;99.90
40964;DHT22;26693;51.168;4.138;2022-12-10T05:54:53;-0.50;99.90
40964;DHT22;26693;51.168;4.138;2022-12-10T05:56:05;-0.30;99.90
40964;DHT22;26693;51.168;4.138;2022-12-10T05:57:06;-0.20;99.90
40964;DHT22;26693;51.168;4.138;2022-12-10T05:58:07;-0.40;99.90
40964;DHT22;26693;51.168;4.138;2022-12-10T05:59:08;-0.30;99.90
40964;DHT22;26693;51.168;4.138;2022-12-10T06:00:09;-0.20;99.90
40964;DHT22;26693;51.168;4.138;2022-12-10T06:01:16;-0.10;99.90
40964;DHT22;26693;51.168;4.138;2022-12-10T06:02:17;0.00;99.90
40964;DHT22;26693;51.168;4.138;2022-12-10T06:03:17;0.00;99.90
40964;DHT22;26693;51.168;4.138;2022-12-10T06:04:18;0.10;99.90
40964;DHT22;26693;51.168;4.138;2022-12-10T06:05:19;0.10;99.90
40964;DHT22;26693;51.168;4.138;2022-12-10T06:06:25;0.20;99.90
40964;DHT22;26693;51.168;4.138;2022-12-10T06:07:26;0.10;99.90
40964;DHT22;26693;51.168;4.138;2022-12-10T06:08:26;0.10;99.90
40964;DHT22;26693;51.168;4.138;2022-12-10T06:09:27;0.20;99.90
40964;DHT22;26693;51.168;4.138;2022-12-10T06:10:27;0.20;99.90
40964;DHT22;26693;51.168;4.138;2022-12-10T06:11:28;0.20;99.90
40964;DHT22;26693;51.168;4.138;2022-12-10T06:12:29;0.20;99.90
40964;DHT22;26693;51.168;4.138;2022-12-10T06:13:29;-0.10;99.90
40964;DHT22;26693;51.168;4.138;2022-12-10T06:14:30;0.10;99.90
40964;DHT22;26693;51.168;4.138;2022-12-10T06:15:31;0.20;99.90
40964;DHT22;26693;51.168;4.138;2022-12-10T06:16:32;0.10;99.90
40964;DHT22;26693;51.168;4.138;2022-12-10T06:17:33;0.20;99.90
40964;DHT22;26693;51.168;4.138;2022-12-10T06:18:34;0.40;99.90
40964;DHT22;26693;51.168;4.138;2022-12-10T06:19:35;0.30;99.90
40964;DHT22;26693;51.168;4.138;2022-12-10T06:20:38;0.30;99.90
40964;DHT22;26693;51.168;4.138;2022-12-10T06:21:39;0.00;99.90
40964;DHT22;26693;51.168;4.138;2022-12-10T06:22:39;0.00;99.90
40964;DHT22;26693;51.168;4.138;2022-12-10T06:23:40;0.00;99.90
40964;DHT22;26693;51.168;4.138;2022-12-10T06:24:41;-0.10;99.90
40964;DHT22;26693;51.168;4.138;2022-12-10T06:25:42;-0.20;99.90
40964;DHT22;26693;51.168;4.138;2022-12-10T06:26:43;-0.20;99.90
40964;DHT22;26693;51.168;4.138;2022-12-10T06:27:43;-0.10;99.90
40964;DHT22;26693;51.168;4.138;2022-12-10T06:28:45;-0.20;99.90
40964;DHT22;26693;51.168;4.138;2022-12-10T06:29:46;-0.20;99.90
40964;DHT22;26693;51.168;4.138;2022-12-10T06:30:46;-0.10;99.90
40964;DHT22;26693;51.168;4.138;2022-12-10T06:31:47;-0.20;99.90
40964;DHT22;26693;51.168;4.138;2022-12-10T06:32:47;-0.20;99.90
40964;DHT22;26693;51.168;4.138;2022-12-10T06:33:48;-0.10;99.90
40964;DHT22;26693;51.168;4.138;2022-12-10T06:34:49;0.00;99.90
40964;DHT22;26693;51.168;4.138;2022-12-10T06:35:50;0.10;99.90
40964;DHT22;26693;51.168;4.138;2022-12-10T06:36:50;0.00;99.90
40964;DHT22;26693;51.168;4.138;2022-12-10T06:37:51;-0.20;99.90
40964;DHT22;26693;51.168;4.138;2022-12-10T06:38:51;-0.20;99.90
40964;DHT22;26693;51.168;4.138;2022-12-10T06:39:52;-0.10;99.90
40964;DHT22;26693;51.168;4.138;2022-12-10T06:40:53;-0.10;99.90
40964;DHT22;26693;51.168;4.138;2022-12-10T06:41:54;-0.10;99.90
40964;DHT22;26693;51.168;4.138;2022-12-10T06:42:54;-0.20;99.90
40964;DHT22;26693;51.168;4.138;2022-12-10T06:43:55;-0.10;99.90
40964;DHT22;26693;51.168;4.138;2022-12-10T06:44:58;-0.10;99.90
40964;DHT22;26693;51.168;4.138;2022-12-10T06:46:03;-0.10;99.90
40964;DHT22;26693;51.168;4.138;2022-12-10T06:47:04;0.00;99.90
40964;DHT22;26693;51.168;4.138;2022-12-10T06:48:05;0.10;99.90
40964;DHT22;26693;51.168;4.138;2022-12-10T06:49:06;0.10;99.90
40964;DHT22;26693;51.168;4.138;2022-12-10T06:50:06;0.10;99.90
40964;DHT22;26693;51.168;4.138;2022-12-10T06:51:08;0.10;99.90
40964;DHT22;26693;51.168;4.138;2022-12-10T06:52:09;0.10;99.90
40964;DHT22;26693;51.168;4.138;2022-12-10T06:53:10;0.00;99.90
40964;DHT22;26693;51.168;4.138;2022-12-10T06:54:10;0.00;99.90
40964;DHT22;26693;51.168;4.138;2022-12-10T06:55:11;0.00;99.90
40964;DHT22;26693;51.168;4.138;2022-12-10T06:56:14;0.10;99.90
40964;DHT22;26693;51.168;4.138;2022-12-10T06:57:15;0.10;99.90
40964;DHT22;26693;51.168;4.138;2022-12-10T06:58:15;0.10;99.90
40964;DHT22;26693;51.168;4.138;2022-12-10T06:59:16;0.10;99.90